< < Back
Terminal Aerodrome Forecast


Current Version              Previous Versions:   1  2  3  4  5  6  7  8  9  

Terminal Aerodrome Forecast

120
FTUS42 KILM 272320
TAFFLO
TAF
KFLO 272320Z 2800/2824 12007KT P6SM SCT035
     FM280300 VRB03KT P6SM FEW060 SCT150
      TEMPO 2809/2812 3SM BR SCT006
     FM281300 10004KT P6SM SCT020=

Latest METAR

054
SAUS70 KWBC 281300 RRE
MTRFLO
METAR KFLO 281253Z 09006KT 10SM CLR 27/23 A3001 RMK AO2 SLP159
T02670228


USA.gov is the U.S. government's official web portal to all federal, state and local government web resources and services.